Marcel — ONDP — position and weather

sailwx.info

Track history (hours):
 
Tides and Currents Weather Stations Pressure Air Temp Water Temp Dewpoint Dewpoint Depression Visibility Wind Speed Wind Dir Waves Ship Positions

Marcel

Last reported at 2014-Dec-18 19:33 UTC. Time now 2014-Dec-22 08:30 UTC.
Position N 48°54' W 005°40'.

Length 88 m; draft 4.9 m.

Type: Cargo ship. MMSI: 205439000.

Date/timePositionNaut miles runAvg speedWind from/ knotsBaromVisibWave heightAir tempDewpointWater temp
2014-Dec-18 19:33N 48°54' W 005°40'  
2014-Dec-13 08:14N 50°56' E 001°16'6 9.6
2014-Dec-13 07:33N 51°02' E 001°22'10 9.6
2014-Dec-13 06:33N 51°08' E 001°34'9 8.6
2014-Dec-13 05:33N 51°13' E 001°45'8 8.3
2014-Dec-13 04:33N 51°19' E 001°54'9 8.5
2014-Dec-13 03:33N 51°21' E 002°07'9 8.8
2014-Dec-13 02:33N 51°22' E 002°21'9 9.2
2014-Dec-13 01:33N 51°23' E 002°36'8 7.9
2014-Dec-13 00:33N 51°22' E 002°49'10 9.9
2014-Dec-12 23:33N 51°24' E 003°04'1010.3
2014-Dec-12 22:33N 51°24' E 003°20'1010.5
2014-Dec-12 21:34N 51°26' E 003°37'10 9.5
2014-Dec-12 20:34N 51°20' E 003°49'2 1.9
2014-Dec-12 19:33N 51°18' E 003°50'0 0.0
2014-Dec-12 18:33N 51°18' E 003°50'0 0.0
2014-Dec-12 17:33N 51°18' E 003°50'0 0.0
2014-Dec-12 16:28N 51°18' E 003°50'0 0.0
2014-Dec-12 15:26N 51°18' E 003°50'0 0.0
2014-Dec-12 14:27N 51°18' E 003°50'0 0.0
2014-Dec-12 13:27N 51°18' E 003°50'0 0.0
2014-Dec-12 12:27N 51°18' E 003°50'0 0.0
2014-Dec-12 11:26N 51°18' E 003°50'0 0.0
2014-Dec-12 10:19N 51°18' E 003°50'0 0.0
2014-Dec-12 09:24N 51°18' E 003°50'0 0.0
2014-Dec-12 08:28N 51°18' E 003°50'0 0.0
2014-Dec-12 07:31N 51°18' E 003°50'0 0.0
2014-Dec-12 06:30N 51°18' E 003°50'0 0.0
2014-Dec-12 05:32N 51°18' E 003°50'0 0.0
2014-Dec-12 04:27N 51°18' E 003°50'0 0.0
2014-Dec-12 03:33N 51°18' E 003°50'0 0.0
2014-Dec-12 02:27N 51°18' E 003°50'0 0.0
2014-Dec-12 01:32N 51°18' E 003°50'0 0.0
2014-Dec-12 00:21N 51°18' E 003°50'0 0.0
2014-Dec-11 23:26N 51°18' E 003°50'0 0.0
2014-Dec-11 22:29N 51°18' E 003°50'0 0.0
2014-Dec-11 21:32N 51°18' E 003°50'0 0.0
2014-Dec-11 20:31N 51°18' E 003°50'0 0.0
2014-Dec-11 19:31N 51°18' E 003°50'0 0.0
2014-Dec-11 18:30N 51°18' E 003°50'0 0.0
2014-Dec-11 17:29N 51°18' E 003°50'0 0.0
2014-Dec-11 16:32N 51°18' E 003°50'0 0.0
2014-Dec-11 15:32N 51°18' E 003°50'0 0.0
2014-Dec-11 14:26N 51°18' E 003°50'0 0.0
2014-Dec-11 13:27N 51°18' E 003°50'0 0.0
2014-Dec-11 12:31N 51°18' E 003°50'0 0.0
2014-Dec-11 11:28N 51°18' E 003°50'0 0.0
2014-Dec-11 10:32N 51°18' E 003°50'0 0.0
2014-Dec-11 09:33N 51°18' E 003°50'0 0.0
2014-Dec-11 08:33N 51°18' E 003°50'0 0.0
2014-Dec-11 07:33N 51°18' E 003°50'0 0.0
2014-Dec-11 06:33N 51°18' E 003°50'0 0.0
2014-Dec-11 05:29N 51°18' E 003°50'0 0.0
2014-Dec-11 04:33N 51°18' E 003°50'0 0.0
2014-Dec-11 03:31N 51°18' E 003°50'0 0.0
2014-Dec-11 02:32N 51°18' E 003°50'0 0.0
2014-Dec-11 01:31N 51°18' E 003°50'0 0.0
2014-Dec-11 00:27N 51°18' E 003°50'0 0.0
2014-Dec-10 23:33N 51°18' E 003°50'0 0.0
2014-Dec-10 22:28N 51°18' E 003°50'0 0.0
2014-Dec-10 21:33N 51°18' E 003°50'0 0.0
2014-Dec-10 20:33N 51°18' E 003°50'0 0.0
2014-Dec-10 19:34N 51°18' E 003°50'0 0.0
2014-Dec-10 18:33N 51°18' E 003°50'0 0.0
2014-Dec-10 17:33N 51°18' E 003°50'0 0.0
2014-Dec-10 16:33N 51°18' E 003°50'0 0.0
2014-Dec-10 15:33N 51°18' E 003°50'0 0.0
2014-Dec-10 14:33N 51°18' E 003°50'0 0.0
2014-Dec-10 13:33N 51°18' E 003°50'0 0.0
2014-Dec-10 12:34N 51°18' E 003°50'0 0.0
2014-Dec-10 11:33N 51°18' E 003°50'2 2.4
2014-Dec-10 10:34N 51°21' E 003°49'8 8.1
2014-Dec-10 09:33N 51°25' E 003°38'6 6.5
2014-Dec-10 08:33N 51°29' E 003°30'8 7.9
2014-Dec-10 07:33N 51°36' E 003°23'8 8.3
2014-Dec-10 06:33N 51°42' E 003°14'8 8.3
2014-Dec-10 05:33N 51°48' E 003°04'4 4.4
2014-Dec-10 04:33N 51°52' E 003°03'3 2.9
2014-Dec-10 03:32N 51°55' E 003°01'28 9.2
2014-Dec-10 00:30N 51°51' E 002°16'8 8.5
2014-Dec-09 23:33N 51°50' E 002°04'8 8.0
2014-Dec-09 22:34N 51°48' E 001°51'7 7.2
2014-Dec-09 21:33N 51°51' E 001°41'6 6.5
2014-Dec-09 20:33N 51°56' E 001°33'5 4.9
2014-Dec-09 19:33N 51°57' E 001°25'0 0.0
2014-Dec-09 18:32N 51°57' E 001°25'0 0.0
2014-Dec-09 17:31N 51°57' E 001°25'0 0.0
2014-Dec-09 16:28N 51°57' E 001°25'0 0.0
2014-Dec-09 15:31N 51°57' E 001°25'0 0.0
2014-Dec-09 14:32N 51°57' E 001°25'5 4.8
2014-Dec-09 13:34N 51°57' E 001°18'7 7.2
2014-Dec-09 12:34N 51°57' E 001°06'1 0.6
2014-Dec-09 11:32N 51°57' E 001°05'0 0.0
2014-Dec-09 10:32N 51°57' E 001°05'0 0.0
2014-Dec-09 09:33N 51°57' E 001°05'0 0.0
2014-Dec-09 08:33N 51°57' E 001°05'0 0.0
2014-Dec-09 07:33N 51°57' E 001°05'0 0.0
2014-Dec-09 06:33N 51°57' E 001°05'0 0.0
2014-Dec-09 05:32N 51°57' E 001°05'0 0.0
2014-Dec-09 04:31N 51°57' E 001°05'0 0.0
2014-Dec-09 03:33N 51°57' E 001°05'0 0.0
2014-Dec-09 02:33N 51°57' E 001°05'0 0.0
2014-Dec-09 01:33N 51°57' E 001°05'0 0.0
2014-Dec-09 00:33N 51°57' E 001°05'0 0.0
2014-Dec-08 23:31N 51°57' E 001°05'0 0.0
2014-Dec-08 22:33N 51°57' E 001°05'0 0.0
2014-Dec-08 21:32N 51°57' E 001°05'0 0.0
2014-Dec-08 20:32N 51°57' E 001°05'  
Track history (hours):
 
Tides and Currents Weather Stations Pressure Air Temp Water Temp Dewpoint Dewpoint Depression Visibility Wind Speed Wind Dir Waves Ship Positions

Marcel

Last reported at 2014-Dec-18 19:33 UTC. Time now 2014-Dec-22 08:30 UTC.
Position N 48°54' W 005°40'.

Length 88 m; draft 4.9 m.

Type: Cargo ship. MMSI: 205439000.

Date/timePositionNaut miles runAvg speedWind from/ knotsBaromVisibWave heightAir tempDewpointWater temp
2014-Dec-18 19:33N 48°54' W 005°40'  
2014-Dec-13 08:14N 50°56' E 001°16'6 9.6
2014-Dec-13 07:33N 51°02' E 001°22'10 9.6
2014-Dec-13 06:33N 51°08' E 001°34'9 8.6
2014-Dec-13 05:33N 51°13' E 001°45'8 8.3
2014-Dec-13 04:33N 51°19' E 001°54'9 8.5
2014-Dec-13 03:33N 51°21' E 002°07'9 8.8
2014-Dec-13 02:33N 51°22' E 002°21'9 9.2
2014-Dec-13 01:33N 51°23' E 002°36'8 7.9
2014-Dec-13 00:33N 51°22' E 002°49'10 9.9
2014-Dec-12 23:33N 51°24' E 003°04'1010.3
2014-Dec-12 22:33N 51°24' E 003°20'1010.5
2014-Dec-12 21:34N 51°26' E 003°37'10 9.5
2014-Dec-12 20:34N 51°20' E 003°49'2 1.9
2014-Dec-12 19:33N 51°18' E 003°50'0 0.0
2014-Dec-12 18:33N 51°18' E 003°50'0 0.0
2014-Dec-12 17:33N 51°18' E 003°50'0 0.0
2014-Dec-12 16:28N 51°18' E 003°50'0 0.0
2014-Dec-12 15:26N 51°18' E 003°50'0 0.0
2014-Dec-12 14:27N 51°18' E 003°50'0 0.0
2014-Dec-12 13:27N 51°18' E 003°50'0 0.0
2014-Dec-12 12:27N 51°18' E 003°50'0 0.0
2014-Dec-12 11:26N 51°18' E 003°50'0 0.0
2014-Dec-12 10:19N 51°18' E 003°50'0 0.0
2014-Dec-12 09:24N 51°18' E 003°50'0 0.0
2014-Dec-12 08:28N 51°18' E 003°50'0 0.0
2014-Dec-12 07:31N 51°18' E 003°50'0 0.0
2014-Dec-12 06:30N 51°18' E 003°50'0 0.0
2014-Dec-12 05:32N 51°18' E 003°50'0 0.0
2014-Dec-12 04:27N 51°18' E 003°50'0 0.0
2014-Dec-12 03:33N 51°18' E 003°50'0 0.0
2014-Dec-12 02:27N 51°18' E 003°50'0 0.0
2014-Dec-12 01:32N 51°18' E 003°50'0 0.0
2014-Dec-12 00:21N 51°18' E 003°50'0 0.0
2014-Dec-11 23:26N 51°18' E 003°50'0 0.0
2014-Dec-11 22:29N 51°18' E 003°50'0 0.0
2014-Dec-11 21:32N 51°18' E 003°50'0 0.0
2014-Dec-11 20:31N 51°18' E 003°50'0 0.0
2014-Dec-11 19:31N 51°18' E 003°50'0 0.0
2014-Dec-11 18:30N 51°18' E 003°50'0 0.0
2014-Dec-11 17:29N 51°18' E 003°50'0 0.0
2014-Dec-11 16:32N 51°18' E 003°50'0 0.0
2014-Dec-11 15:32N 51°18' E 003°50'0 0.0
2014-Dec-11 14:26N 51°18' E 003°50'0 0.0
2014-Dec-11 13:27N 51°18' E 003°50'0 0.0
2014-Dec-11 12:31N 51°18' E 003°50'0 0.0
2014-Dec-11 11:28N 51°18' E 003°50'0 0.0
2014-Dec-11 10:32N 51°18' E 003°50'0 0.0
2014-Dec-11 09:33N 51°18' E 003°50'0 0.0
2014-Dec-11 08:33N 51°18' E 003°50'0 0.0
2014-Dec-11 07:33N 51°18' E 003°50'0 0.0
2014-Dec-11 06:33N 51°18' E 003°50'0 0.0
2014-Dec-11 05:29N 51°18' E 003°50'0 0.0
2014-Dec-11 04:33N 51°18' E 003°50'0 0.0
2014-Dec-11 03:31N 51°18' E 003°50'0 0.0
2014-Dec-11 02:32N 51°18' E 003°50'0 0.0
2014-Dec-11 01:31N 51°18' E 003°50'0 0.0
2014-Dec-11 00:27N 51°18' E 003°50'0 0.0
2014-Dec-10 23:33N 51°18' E 003°50'0 0.0
2014-Dec-10 22:28N 51°18' E 003°50'0 0.0
2014-Dec-10 21:33N 51°18' E 003°50'0 0.0
2014-Dec-10 20:33N 51°18' E 003°50'0 0.0
2014-Dec-10 19:34N 51°18' E 003°50'0 0.0
2014-Dec-10 18:33N 51°18' E 003°50'0 0.0
2014-Dec-10 17:33N 51°18' E 003°50'0 0.0
2014-Dec-10 16:33N 51°18' E 003°50'0 0.0
2014-Dec-10 15:33N 51°18' E 003°50'0 0.0
2014-Dec-10 14:33N 51°18' E 003°50'0 0.0
2014-Dec-10 13:33N 51°18' E 003°50'0 0.0
2014-Dec-10 12:34N 51°18' E 003°50'0 0.0
2014-Dec-10 11:33N 51°18' E 003°50'2 2.4
2014-Dec-10 10:34N 51°21' E 003°49'8 8.1
2014-Dec-10 09:33N 51°25' E 003°38'6 6.5
2014-Dec-10 08:33N 51°29' E 003°30'8 7.9
2014-Dec-10 07:33N 51°36' E 003°23'8 8.3
2014-Dec-10 06:33N 51°42' E 003°14'8 8.3
2014-Dec-10 05:33N 51°48' E 003°04'4 4.4
2014-Dec-10 04:33N 51°52' E 003°03'3 2.9
2014-Dec-10 03:32N 51°55' E 003°01'28 9.2
2014-Dec-10 00:30N 51°51' E 002°16'8 8.5
2014-Dec-09 23:33N 51°50' E 002°04'8 8.0
2014-Dec-09 22:34N 51°48' E 001°51'7 7.2
2014-Dec-09 21:33N 51°51' E 001°41'6 6.5
2014-Dec-09 20:33N 51°56' E 001°33'5 4.9
2014-Dec-09 19:33N 51°57' E 001°25'0 0.0
2014-Dec-09 18:32N 51°57' E 001°25'0 0.0
2014-Dec-09 17:31N 51°57' E 001°25'0 0.0
2014-Dec-09 16:28N 51°57' E 001°25'0 0.0
2014-Dec-09 15:31N 51°57' E 001°25'0 0.0
2014-Dec-09 14:32N 51°57' E 001°25'5 4.8
2014-Dec-09 13:34N 51°57' E 001°18'7 7.2
2014-Dec-09 12:34N 51°57' E 001°06'1 0.6
2014-Dec-09 11:32N 51°57' E 001°05'0 0.0
2014-Dec-09 10:32N 51°57' E 001°05'0 0.0
2014-Dec-09 09:33N 51°57' E 001°05'0 0.0
2014-Dec-09 08:33N 51°57' E 001°05'0 0.0
2014-Dec-09 07:33N 51°57' E 001°05'0 0.0
2014-Dec-09 06:33N 51°57' E 001°05'0 0.0
2014-Dec-09 05:32N 51°57' E 001°05'0 0.0
2014-Dec-09 04:31N 51°57' E 001°05'0 0.0
2014-Dec-09 03:33N 51°57' E 001°05'0 0.0
2014-Dec-09 02:33N 51°57' E 001°05'0 0.0
2014-Dec-09 01:33N 51°57' E 001°05'0 0.0
2014-Dec-09 00:33N 51°57' E 001°05'0 0.0
2014-Dec-08 23:31N 51°57' E 001°05'0 0.0
2014-Dec-08 22:33N 51°57' E 001°05'0 0.0
2014-Dec-08 21:32N 51°57' E 001°05'0 0.0
2014-Dec-08 20:32N 51°57' E 001°05'  

Dump ship's entire track history